Time,TemperatureF,DewpointF,PressureIn,WindDirection,WindDirectionDegrees,WindSpeedMPH,WindSpeedGustMPH,Humidity,HourlyPrecipIn,Conditions,Clouds,dailyrainin,SoftwareType,DateUTC
2013-05-14 00:01:00,48.0,25.5,30.06,South,180,0.0,0.0,41,0.00,,---,0.00,VWS V14.00,2013-05-14 04:01:00,
2013-05-14 00:03:00,48.0,25.5,30.06,South,180,0.0,0.0,41,0.00,,---,0.00,VWS V14.00,2013-05-14 04:03:00,
2013-05-14 00:08:00,48.0,25.5,30.06,SSE,158,1.3,1.3,41,0.00,,---,0.00,VWS V14.00,2013-05-14 04:08:00,
2013-05-14 00:13:00,48.2,25.0,30.06,SSE,158,2.7,2.7,40,0.00,,---,0.00,VWS V14.00,2013-05-14 04:13:00,
2013-05-14 00:19:00,48.4,25.2,30.06,SSE,158,0.0,0.0,40,0.00,,---,0.00,VWS V14.00,2013-05-14 04:19:00,
2013-05-14 00:24:00,48.4,25.2,30.06,SSE,158,1.6,2.5,40,0.00,,---,0.00,VWS V14.00,2013-05-14 04:24:00,
2013-05-14 00:29:00,48.6,25.4,30.06,ENE,68,0.0,0.0,40,0.00,,---,0.00,VWS V14.00,2013-05-14 04:29:00,
2013-05-14 00:34:00,48.6,25.4,30.06,ENE,68,0.0,0.0,40,0.00,,---,0.00,VWS V14.00,2013-05-14 04:34:00,
2013-05-14 00:39:00,48.6,25.4,30.06,ESE,112,0.0,0.0,40,0.00,,---,0.00,VWS V14.00,2013-05-14 04:39:00,
2013-05-14 00:44:00,48.7,25.5,30.06,SE,135,1.3,1.3,40,0.00,,---,0.00,VWS V14.00,2013-05-14 04:44:00,
2013-05-14 00:49:00,48.7,25.5,30.06,SSE,158,1.6,2.7,40,0.00,,---,0.00,VWS V14.00,2013-05-14 04:49:00,
2013-05-14 00:54:00,48.9,25.1,30.06,SSE,158,0.0,0.0,39,0.00,,---,0.00,VWS V14.00,2013-05-14 04:54:00,
2013-05-14 00:59:00,49.1,25.2,30.06,SE,135,0.0,0.0,39,0.00,,---,0.00,VWS V14.00,2013-05-14 04:59:00,
2013-05-14 01:04:00,49.1,25.2,30.06,SE,135,0.0,0.0,39,0.00,,---,0.00,VWS V14.00,2013-05-14 05:04:00,
2013-05-14 01:09:00,49.1,25.2,30.06,SSE,158,0.0,2.7,39,0.00,,---,0.00,VWS V14.00,2013-05-14 05:09:00,
2013-05-14 01:14:00,49.3,25.4,30.06,SSE,158,0.0,0.0,39,0.00,,---,0.00,VWS V14.00,2013-05-14 05:14:00,
2013-05-14 01:19:00,49.1,24.6,30.06,SSE,158,0.0,0.9,38,0.00,,---,0.00,VWS V14.00,2013-05-14 05:19:00,
2013-05-14 01:24:00,49.3,24.8,30.06,SSE,158,1.1,1.3,38,0.00,,---,0.00,VWS V14.00,2013-05-14 05:24:00,
2013-05-14 01:29:00,49.3,24.8,30.06,ESE,112,0.0,0.0,38,0.00,,---,0.00,VWS V14.00,2013-05-14 05:29:00,
2013-05-14 01:34:00,49.3,24.8,30.06,SE,135,0.9,0.9,38,0.00,,---,0.00,VWS V14.00,2013-05-14 05:34:00,
2013-05-14 01:39:00,49.3,24.8,30.06,SSW,202,0.0,0.0,38,0.00,,---,0.00,VWS V14.00,2013-05-14 05:39:00,
2013-05-14 01:44:00,49.3,24.8,30.06,SSE,158,3.6,3.6,38,0.00,,---,0.00,VWS V14.00,2013-05-14 05:44:00,
2013-05-14 01:49:00,49.5,24.9,30.06,SSE,158,1.3,1.3,38,0.00,,---,0.00,VWS V14.00,2013-05-14 05:49:00,
2013-05-14 01:54:00,49.3,24.8,30.06,SSE,158,0.0,0.0,38,0.00,,---,0.00,VWS V14.00,2013-05-14 05:54:00,
2013-05-14 01:59:00,49.5,24.9,30.06,SSE,158,0.0,0.0,38,0.00,,---,0.00,VWS V14.00,2013-05-14 05:59:00,
2013-05-14 02:04:00,49.3,24.8,30.06,SE,135,1.1,2.0,38,0.00,,---,0.00,VWS V14.00,2013-05-14 06:04:00,
2013-05-14 02:09:00,49.5,24.9,30.06,SSE,158,1.3,2.2,38,0.00,,---,0.00,VWS V14.00,2013-05-14 06:09:00,
2013-05-14 02:14:00,49.5,25.5,30.00,SSW,202,0.0,1.3,39,0.00,,---,0.00,VWS V14.00,2013-05-14 06:14:00,
2013-05-14 02:19:00,49.5,25.5,30.00,SSE,158,2.2,2.2,39,0.00,,---,0.00,VWS V14.00,2013-05-14 06:19:00,
2013-05-14 02:24:00,49.3,25.4,30.00,SSE,158,1.1,1.1,39,0.00,,---,0.00,VWS V14.00,2013-05-14 06:24:00,
2013-05-14 02:30:00,49.3,25.4,30.00,SSE,158,2.2,2.2,39,0.00,,---,0.00,VWS V14.00,2013-05-14 06:30:00,
2013-05-14 02:35:00,49.5,25.5,30.00,SSE,158,0.0,0.0,39,0.00,,---,0.00,VWS V14.00,2013-05-14 06:35:00,
2013-05-14 02:40:00,49.5,25.5,30.00,SSE,158,2.7,2.9,39,0.00,,---,0.00,VWS V14.00,2013-05-14 06:40:00,
2013-05-14 02:45:00,49.5,25.5,30.00,SE,135,0.0,1.1,39,0.00,,---,0.00,VWS V14.00,2013-05-14 06:45:00,
2013-05-14 02:50:00,49.6,25.7,30.00,SSE,158,2.9,4.0,39,0.00,,---,0.00,VWS V14.00,2013-05-14 06:50:00,
2013-05-14 02:55:00,49.6,25.7,30.00,SE,135,2.5,2.7,39,0.00,,---,0.00,VWS V14.00,2013-05-14 06:55:00,
2013-05-14 03:00:00,49.6,25.1,29.97,SE,135,3.8,5.8,38,0.00,,---,0.00,VWS V14.00,2013-05-14 07:00:00,
2013-05-14 03:05:00,49.6,25.1,29.97,South,180,3.1,3.8,38,0.00,,---,0.00,VWS V14.00,2013-05-14 07:05:00,
2013-05-14 03:10:00,49.6,25.1,29.97,SSE,158,2.5,2.5,38,0.00,,---,0.00,VWS V14.00,2013-05-14 07:10:00,
2013-05-14 03:15:00,49.6,25.7,30.00,SW,225,1.1,1.3,39,0.00,,---,0.00,VWS V14.00,2013-05-14 07:15:00,
2013-05-14 03:20:00,49.6,25.7,30.00,SSE,158,0.0,0.0,39,0.00,,---,0.00,VWS V14.00,2013-05-14 07:20:00,
2013-05-14 03:25:00,49.6,25.7,30.00,SSE,158,2.0,3.4,39,0.00,,---,0.00,VWS V14.00,2013-05-14 07:25:00,
2013-05-14 03:30:00,49.6,25.7,30.00,ENE,68,0.0,0.0,39,0.00,,---,0.00,VWS V14.00,2013-05-14 07:30:00,
2013-05-14 03:35:00,49.6,25.7,30.00,SE,135,0.0,0.0,39,0.00,,---,0.00,VWS V14.00,2013-05-14 07:35:00,
2013-05-14 03:40:00,49.6,25.7,30.00,SE,135,0.0,0.0,39,0.00,,---,0.00,VWS V14.00,2013-05-14 07:40:00,
2013-05-14 03:46:00,49.6,25.7,30.00,SE,135,0.0,0.0,39,0.00,,---,0.00,VWS V14.00,2013-05-14 07:46:00,
2013-05-14 03:51:00,49.6,26.3,30.00,SE,135,0.0,0.0,40,0.00,,---,0.00,VWS V14.00,2013-05-14 07:51:00,
2013-05-14 03:56:00,49.6,26.3,30.00,SE,135,0.0,0.0,40,0.00,,---,0.00,VWS V14.00,2013-05-14 07:56:00,
2013-05-14 04:01:00,49.6,26.3,30.00,SE,135,0.0,0.0,40,0.00,,---,0.00,VWS V14.00,2013-05-14 08:01:00,
2013-05-14 04:06:00,49.5,26.8,30.00,SSE,158,1.3,1.3,41,0.00,,---,0.00,VWS V14.00,2013-05-14 08:06:00,
2013-05-14 04:11:00,49.5,26.8,30.00,SSE,158,1.1,1.1,41,0.00,,---,0.00,VWS V14.00,2013-05-14 08:11:00,
2013-05-14 04:16:00,49.5,27.3,30.00,SSE,158,1.6,1.6,42,0.00,,---,0.00,VWS V14.00,2013-05-14 08:16:00,
2013-05-14 04:21:00,49.3,27.2,30.00,SSE,158,0.0,0.0,42,0.00,,---,0.00,VWS V14.00,2013-05-14 08:21:00,
2013-05-14 04:26:00,49.3,27.2,30.00,East,90,0.0,0.0,42,0.00,,---,0.00,VWS V14.00,2013-05-14 08:26:00,
2013-05-14 04:31:00,49.3,27.2,30.00,NE,45,0.0,1.3,42,0.00,,---,0.00,VWS V14.00,2013-05-14 08:31:00,
2013-05-14 04:37:00,49.3,27.2,30.00,SSE,158,1.3,1.3,42,0.00,,---,0.00,VWS V14.00,2013-05-14 08:37:00,
2013-05-14 04:42:00,49.3,27.2,30.00,SSE,158,1.3,1.6,42,0.00,,---,0.00,VWS V14.00,2013-05-14 08:42:00,
2013-05-14 04:47:00,49.3,27.2,30.00,SSE,158,0.9,1.6,42,0.00,,---,0.00,VWS V14.00,2013-05-14 08:47:00,
2013-05-14 04:52:00,49.3,27.2,30.00,SSE,158,1.6,1.6,42,0.00,,---,0.00,VWS V14.00,2013-05-14 08:52:00,
2013-05-14 04:57:00,49.3,27.2,30.00,SSE,158,1.1,1.1,42,0.00,,---,0.00,VWS V14.00,2013-05-14 08:57:00,
2013-05-14 05:02:00,49.3,27.2,29.97,SSE,158,1.6,1.6,42,0.00,,---,0.00,VWS V14.00,2013-05-14 09:02:00,
2013-05-14 05:07:00,49.3,27.2,29.97,NW,315,0.0,2.9,42,0.00,,---,0.00,VWS V14.00,2013-05-14 09:07:00,
2013-05-14 05:12:00,49.3,27.2,29.97,SSE,158,0.9,2.7,42,0.00,,---,0.00,VWS V14.00,2013-05-14 09:12:00,
2013-05-14 05:17:00,49.3,27.2,29.97,SSE,158,1.1,2.0,42,0.00,,---,0.00,VWS V14.00,2013-05-14 09:17:00,
2013-05-14 05:22:00,49.3,27.2,29.97,SSE,158,0.9,3.1,42,0.00,,---,0.00,VWS V14.00,2013-05-14 09:22:00,
2013-05-14 05:28:00,49.5,27.3,29.97,SE,135,1.1,1.6,42,0.00,,---,0.00,VWS V14.00,2013-05-14 09:28:00,
2013-05-14 05:33:00,49.5,27.3,29.97,SSE,158,3.4,4.3,42,0.00,,---,0.00,VWS V14.00,2013-05-14 09:33:00,
2013-05-14 05:38:00,49.5,27.3,29.97,SSE,158,2.7,3.6,42,0.00,,---,0.00,VWS V14.00,2013-05-14 09:38:00,
2013-05-14 05:43:00,49.6,26.9,29.97,SE,135,1.3,5.6,41,0.00,,---,0.00,VWS V14.00,2013-05-14 09:43:00,
2013-05-14 05:48:00,49.8,27.1,29.94,SE,135,0.0,0.0,41,0.00,,---,0.00,VWS V14.00,2013-05-14 09:48:00,
2013-05-14 05:53:00,49.8,27.7,29.94,South,180,3.1,4.3,42,0.00,,---,0.00,VWS V14.00,2013-05-14 09:53:00,
2013-05-14 05:58:00,49.8,27.7,29.94,ESE,112,0.9,3.1,42,0.00,,---,0.00,VWS V14.00,2013-05-14 09:58:00,
2013-05-14 06:03:00,50.0,27.2,29.94,SSE,158,3.4,3.4,41,0.00,,---,0.00,VWS V14.00,2013-05-14 10:03:00,
2013-05-14 06:08:00,50.0,27.8,29.94,SE,135,5.4,5.4,42,0.00,,---,0.00,VWS V14.00,2013-05-14 10:08:00,
2013-05-14 06:13:00,50.0,27.8,29.94,SSE,158,1.6,2.2,42,0.00,,---,0.00,VWS V14.00,2013-05-14 10:13:00,
2013-05-14 06:18:00,50.0,27.8,29.94,SSE,158,0.9,2.5,42,0.00,,---,0.00,VWS V14.00,2013-05-14 10:18:00,
2013-05-14 06:23:00,50.0,27.8,29.94,South,180,0.0,0.0,42,0.00,,---,0.00,VWS V14.00,2013-05-14 10:23:00,
2013-05-14 06:28:00,49.8,28.2,29.94,South,180,0.0,2.7,43,0.00,,---,0.00,VWS V14.00,2013-05-14 10:28:00,
2013-05-14 06:33:00,49.8,28.2,29.91,SSE,158,2.0,2.5,43,0.00,,---,0.00,VWS V14.00,2013-05-14 10:33:00,
2013-05-14 06:38:00,49.8,28.2,29.91,ENE,68,1.1,1.1,43,0.00,,---,0.00,VWS V14.00,2013-05-14 10:38:00,
2013-05-14 06:43:00,49.8,28.2,29.91,SE,135,2.7,3.1,43,0.00,,---,0.00,VWS V14.00,2013-05-14 10:43:00,
2013-05-14 06:48:00,49.8,28.8,29.94,SSW,202,1.6,2.5,44,0.00,,---,0.00,VWS V14.00,2013-05-14 10:48:00,
2013-05-14 06:53:00,49.6,28.6,29.94,SSE,158,3.1,3.1,44,0.00,,---,0.00,VWS V14.00,2013-05-14 10:53:00,
2013-05-14 06:58:00,49.6,29.2,29.94,SE,135,1.3,3.1,45,0.00,,---,0.00,VWS V14.00,2013-05-14 10:58:00,
2013-05-14 07:03:00,49.6,29.2,29.94,SSE,158,1.3,1.3,45,0.00,,---,0.00,VWS V14.00,2013-05-14 11:03:00,
2013-05-14 07:08:00,49.6,29.2,29.94,SSE,158,1.3,1.3,45,0.00,,---,0.00,VWS V14.00,2013-05-14 11:08:00,
2013-05-14 07:14:00,49.8,29.9,29.94,SE,135,1.1,4.0,46,0.00,,---,0.00,VWS V14.00,2013-05-14 11:14:00,
2013-05-14 07:19:00,50.0,30.0,29.94,South,180,1.1,2.7,46,0.00,,---,0.00,VWS V14.00,2013-05-14 11:19:00,
2013-05-14 07:24:00,50.0,30.6,29.94,SSE,158,2.7,2.7,47,0.00,,---,0.00,VWS V14.00,2013-05-14 11:24:00,
2013-05-14 07:29:00,50.0,30.6,29.94,SSE,158,3.1,3.8,47,0.00,,---,0.00,VWS V14.00,2013-05-14 11:29:00,
2013-05-14 07:34:00,50.2,30.8,29.88,SSE,158,1.6,2.5,47,0.00,,---,0.00,VWS V14.00,2013-05-14 11:34:00,
2013-05-14 07:39:00,50.4,30.9,29.88,SSE,158,1.6,1.6,47,0.00,,---,0.00,VWS V14.00,2013-05-14 11:39:00,
2013-05-14 07:44:00,50.5,31.6,29.88,East,90,3.1,3.1,48,0.00,,---,0.00,VWS V14.00,2013-05-14 11:44:00,
2013-05-14 07:49:00,51.1,32.1,29.88,SSE,158,1.3,3.1,48,0.00,,---,0.00,VWS V14.00,2013-05-14 11:49:00,
2013-05-14 07:54:00,51.4,32.4,29.88,West,270,1.6,2.5,48,0.00,,---,0.00,VWS V14.00,2013-05-14 11:54:00,
2013-05-14 07:59:00,51.8,32.8,29.88,SSE,158,2.2,4.9,48,0.00,,---,0.00,VWS V14.00,2013-05-14 11:59:00,
2013-05-14 08:04:00,52.3,33.2,29.88,SW,225,2.9,2.9,48,0.00,,---,0.00,VWS V14.00,2013-05-14 12:04:00,
2013-05-14 08:09:00,53.1,33.9,29.88,SSE,158,5.6,5.6,48,0.00,,---,0.00,VWS V14.00,2013-05-14 12:09:00,
2013-05-14 08:14:00,53.2,33.5,29.88,SSE,158,3.4,3.4,47,0.00,,---,0.00,VWS V14.00,2013-05-14 12:14:00,
2013-05-14 08:19:00,53.6,33.9,29.85,SSE,158,1.1,1.6,47,0.00,,---,0.00,VWS V14.00,2013-05-14 12:19:00,
2013-05-14 08:24:00,54.0,34.2,29.85,South,180,3.8,3.8,47,0.00,,---,0.00,VWS V14.00,2013-05-14 12:24:00,
2013-05-14 08:29:00,54.1,34.4,29.85,South,180,7.6,7.6,47,0.00,,---,0.00,VWS V14.00,2013-05-14 12:29:00,
2013-05-14 08:34:00,54.3,34.0,29.85,SE,135,5.4,5.8,46,0.00,,---,0.00,VWS V14.00,2013-05-14 12:34:00,
2013-05-14 08:39:00,54.3,34.5,29.85,WSW,248,0.9,2.7,47,0.00,,---,0.00,VWS V14.00,2013-05-14 12:39:00,
2013-05-14 08:44:00,55.0,35.2,29.88,SSE,158,3.1,5.8,47,0.00,,---,0.00,VWS V14.00,2013-05-14 12:44:00,
2013-05-14 08:50:00,55.9,35.5,29.88,South,180,2.9,2.9,46,0.00,,---,0.00,VWS V14.00,2013-05-14 12:50:00,
2013-05-14 08:55:00,56.5,35.4,29.88,West,270,2.5,2.5,45,0.00,,---,0.00,VWS V14.00,2013-05-14 12:55:00,
2013-05-14 09:00:00,56.8,35.7,29.85,SSW,202,2.2,2.2,45,0.00,,---,0.00,VWS V14.00,2013-05-14 13:00:00,
2013-05-14 09:05:00,57.2,35.5,29.85,SW,225,1.1,4.7,44,0.00,,---,0.00,VWS V14.00,2013-05-14 13:05:00,
2013-05-14 09:10:00,57.9,36.2,29.85,SE,135,2.7,2.7,44,0.00,,---,0.00,VWS V14.00,2013-05-14 13:10:00,
2013-05-14 09:15:00,57.9,35.6,29.88,SSE,158,2.0,6.5,43,0.00,,---,0.00,VWS V14.00,2013-05-14 13:15:00,
2013-05-14 09:20:00,57.7,36.0,29.88,SSW,202,3.6,4.9,44,0.00,,---,0.00,VWS V14.00,2013-05-14 13:20:00,
2013-05-14 09:25:00,57.7,36.6,29.88,South,180,2.9,2.9,45,0.00,,---,0.00,VWS V14.00,2013-05-14 13:25:00,
2013-05-14 09:30:00,58.5,36.7,29.85,SE,135,3.6,3.6,44,0.00,,---,0.00,VWS V14.00,2013-05-14 13:30:00,
2013-05-14 09:35:00,58.6,36.8,29.85,SSE,158,2.2,2.2,44,0.00,,---,0.00,VWS V14.00,2013-05-14 13:35:00,
2013-05-14 09:40:00,58.8,37.0,29.85,SSE,158,2.7,2.7,44,0.00,,---,0.00,VWS V14.00,2013-05-14 13:40:00,
2013-05-14 09:45:00,59.4,38.0,29.85,East,90,4.3,4.3,45,0.00,,---,0.00,VWS V14.00,2013-05-14 13:45:00,
2013-05-14 09:50:00,60.1,38.7,29.85,NW,315,2.9,2.9,45,0.00,,---,0.00,VWS V14.00,2013-05-14 13:50:00,
2013-05-14 09:55:00,60.3,37.7,29.85,SSW,202,2.2,3.4,43,0.00,,---,0.00,VWS V14.00,2013-05-14 13:55:00,
2013-05-14 10:00:00,60.6,38.0,29.85,SSW,202,2.7,4.0,43,0.00,,---,0.00,VWS V14.00,2013-05-14 14:00:00,
2013-05-14 10:05:00,61.2,38.5,29.85,WSW,248,1.3,4.0,43,0.00,,---,0.00,VWS V14.00,2013-05-14 14:05:00,
2013-05-14 10:10:00,61.2,39.1,29.85,SE,135,8.5,8.5,44,0.00,,---,0.00,VWS V14.00,2013-05-14 14:10:00,
2013-05-14 10:15:00,61.5,38.8,29.82,ESE,112,3.4,8.7,43,0.00,,---,0.00,VWS V14.00,2013-05-14 14:15:00,
2013-05-14 10:21:00,62.2,40.1,29.82,ENE,68,2.5,4.7,44,0.00,,---,0.00,VWS V14.00,2013-05-14 14:21:00,
2013-05-14 10:26:00,63.0,40.1,29.82,SSE,158,2.7,3.6,43,0.00,,---,0.00,VWS V14.00,2013-05-14 14:26:00,
2013-05-14 10:31:00,63.5,40.6,29.82,SE,135,3.4,3.4,43,0.00,,---,0.00,VWS V14.00,2013-05-14 14:31:00,
2013-05-14 10:36:00,63.7,40.2,29.82,SW,225,2.7,5.6,42,0.00,,---,0.00,VWS V14.00,2013-05-14 14:36:00,
2013-05-14 10:41:00,64.4,41.4,29.82,SE,135,7.8,7.8,43,0.00,,---,0.00,VWS V14.00,2013-05-14 14:41:00,
2013-05-14 10:46:00,64.4,40.2,29.82,ESE,112,2.5,2.5,41,0.00,,---,0.00,VWS V14.00,2013-05-14 14:46:00,
2013-05-14 10:51:00,64.6,41.0,29.82,South,180,4.9,4.9,42,0.00,,---,0.00,VWS V14.00,2013-05-14 14:51:00,
2013-05-14 10:56:00,64.8,40.5,29.82,NNW,338,1.3,3.8,41,0.00,,---,0.00,VWS V14.00,2013-05-14 14:56:00,
2013-05-14 11:01:00,65.1,41.5,29.79,South,180,3.1,3.1,42,0.00,,---,0.00,VWS V14.00,2013-05-14 15:01:00,
2013-05-14 11:06:00,65.7,42.6,29.79,SSE,158,2.7,3.1,43,0.00,,---,0.00,VWS V14.00,2013-05-14 15:06:00,
2013-05-14 11:11:00,66.2,41.8,29.79,NNW,338,2.7,4.3,41,0.00,,---,0.00,VWS V14.00,2013-05-14 15:11:00,
2013-05-14 11:16:00,66.4,41.3,29.82,SSW,202,2.0,4.0,40,0.00,,---,0.00,VWS V14.00,2013-05-14 15:16:00,
2013-05-14 11:22:00,66.7,42.3,29.82,South,180,2.5,2.7,41,0.00,,---,0.00,VWS V14.00,2013-05-14 15:22:00,
2013-05-14 11:27:00,67.3,42.2,29.82,SW,225,2.7,5.6,40,0.00,,---,0.00,VWS V14.00,2013-05-14 15:27:00,
2013-05-14 11:32:00,67.6,43.1,29.82,SSW,202,3.8,7.4,41,0.00,,---,0.00,VWS V14.00,2013-05-14 15:32:00,
2013-05-14 11:37:00,68.0,43.5,29.82,West,270,1.6,1.6,41,0.00,,---,0.00,VWS V14.00,2013-05-14 15:37:00,
2013-05-14 11:42:00,68.7,44.1,29.82,SE,135,4.3,4.3,41,0.00,,---,0.00,VWS V14.00,2013-05-14 15:42:00,
2013-05-14 11:47:00,69.1,43.8,29.79,SW,225,3.6,3.6,40,0.00,,---,0.00,VWS V14.00,2013-05-14 15:47:00,
2013-05-14 11:52:00,69.6,44.9,29.79,SSW,202,2.9,3.4,41,0.00,,---,0.00,VWS V14.00,2013-05-14 15:52:00,
2013-05-14 11:57:00,70.0,44.6,29.79,South,180,1.6,2.7,40,0.00,,---,0.00,VWS V14.00,2013-05-14 15:57:00,
2013-05-14 12:02:00,70.7,45.2,29.79,SSW,202,2.5,5.8,40,0.00,,---,0.00,VWS V14.00,2013-05-14 16:02:00,
2013-05-14 12:07:00,71.2,46.4,29.79,SW,225,1.3,1.6,41,0.00,,---,0.00,VWS V14.00,2013-05-14 16:07:00,
2013-05-14 12:12:00,72.0,47.0,29.79,SE,135,2.7,4.0,41,0.00,,---,0.00,VWS V14.00,2013-05-14 16:12:00,
2013-05-14 12:17:00,72.3,46.7,29.79,SW,225,2.7,3.8,40,0.00,,---,0.00,VWS V14.00,2013-05-14 16:17:00,
2013-05-14 12:23:00,72.5,46.8,29.79,SSW,202,4.3,4.3,40,0.00,,---,0.00,VWS V14.00,2013-05-14 16:23:00,
2013-05-14 12:28:00,73.2,47.5,29.79,SE,135,1.1,4.9,40,0.00,,---,0.00,VWS V14.00,2013-05-14 16:28:00,
2013-05-14 12:33:00,73.2,46.8,29.79,NNW,338,2.0,7.8,39,0.00,,---,0.00,VWS V14.00,2013-05-14 16:33:00,
2013-05-14 12:38:00,73.6,46.4,29.79,NW,315,4.3,4.3,38,0.00,,---,0.00,VWS V14.00,2013-05-14 16:38:00,
2013-05-14 12:43:00,74.3,47.8,29.79,WSW,248,1.6,2.7,39,0.00,,---,0.00,VWS V14.00,2013-05-14 16:43:00,
2013-05-14 12:48:00,74.3,47.1,29.82,SW,225,2.0,2.0,38,0.00,,---,0.00,VWS V14.00,2013-05-14 16:48:00,
2013-05-14 12:53:00,75.0,48.4,29.82,South,180,2.2,4.3,39,0.00,,---,0.00,VWS V14.00,2013-05-14 16:53:00,
2013-05-14 12:58:00,75.2,48.6,29.82,SSW,202,4.3,4.3,39,0.00,,---,0.00,VWS V14.00,2013-05-14 16:58:00,
2013-05-14 13:03:00,75.6,48.2,29.82,SSW,202,2.0,2.2,38,0.00,,---,0.00,VWS V14.00,2013-05-14 17:03:00,
2013-05-14 13:08:00,75.7,48.4,29.82,South,180,2.7,3.1,38,0.00,,---,0.00,VWS V14.00,2013-05-14 17:08:00,
2013-05-14 13:13:00,76.3,48.8,29.82,SE,135,1.6,2.2,38,0.00,,---,0.00,VWS V14.00,2013-05-14 17:13:00,
2013-05-14 13:18:00,75.9,47.1,29.79,South,180,5.8,5.8,36,0.00,,---,0.00,VWS V14.00,2013-05-14 17:18:00,
2013-05-14 13:24:00,76.5,48.3,29.79,SSW,202,2.5,3.4,37,0.00,,---,0.00,VWS V14.00,2013-05-14 17:24:00,
2013-05-14 13:29:00,76.1,48.0,29.79,NNE,22,3.1,3.1,37,0.00,,---,0.00,VWS V14.00,2013-05-14 17:29:00,
2013-05-14 13:34:00,76.6,48.4,29.79,SSW,202,2.5,2.9,37,0.00,,---,0.00,VWS V14.00,2013-05-14 17:34:00,
2013-05-14 13:39:00,76.8,49.3,29.79,South,180,2.2,3.6,38,0.00,,---,0.00,VWS V14.00,2013-05-14 17:39:00,
2013-05-14 13:44:00,77.0,49.5,29.79,SSW,202,2.7,2.7,38,0.00,,---,0.00,VWS V14.00,2013-05-14 17:44:00,
2013-05-14 13:49:00,77.0,49.5,29.79,WSW,248,2.9,4.3,38,0.00,,---,0.00,VWS V14.00,2013-05-14 17:49:00,
2013-05-14 13:54:00,77.2,49.6,29.79,WSW,248,3.6,3.6,38,0.00,,---,0.00,VWS V14.00,2013-05-14 17:54:00,
2013-05-14 13:59:00,77.4,49.1,29.79,West,270,1.3,1.3,37,0.00,,---,0.00,VWS V14.00,2013-05-14 17:59:00,
2013-05-14 14:04:00,77.9,49.6,29.74,North,0,2.2,2.2,37,0.00,,---,0.00,VWS V14.00,2013-05-14 18:04:00,
2013-05-14 14:09:00,78.6,50.9,29.74,SSW,202,2.9,3.8,38,0.00,,---,0.00,VWS V14.00,2013-05-14 18:09:00,
2013-05-14 14:14:00,78.6,50.9,29.74,WSW,248,3.6,3.6,38,0.00,,---,0.00,VWS V14.00,2013-05-14 18:14:00,
2013-05-14 14:19:00,78.6,50.2,29.76,West,270,2.2,2.5,37,0.00,,---,0.00,VWS V14.00,2013-05-14 18:19:00,
2013-05-14 14:24:00,78.6,49.5,29.76,South,180,3.6,3.6,36,0.00,,---,0.00,VWS V14.00,2013-05-14 18:24:00,
2013-05-14 14:29:00,78.8,49.6,29.76,WNW,292,1.1,2.2,36,0.00,,---,0.00,VWS V14.00,2013-05-14 18:29:00,
2013-05-14 14:34:00,78.8,49.6,29.76,SSE,158,2.0,2.5,36,0.00,,---,0.00,VWS V14.00,2013-05-14 18:34:00,
2013-05-14 14:39:00,79.0,49.0,29.76,North,0,1.3,2.2,35,0.00,,---,0.00,VWS V14.00,2013-05-14 18:39:00,
2013-05-14 14:45:00,79.2,49.9,29.76,NNE,22,2.2,2.2,36,0.00,,---,0.00,VWS V14.00,2013-05-14 18:45:00,
2013-05-14 14:50:00,79.3,50.1,29.76,SW,225,2.9,2.9,36,0.00,,---,0.00,VWS V14.00,2013-05-14 18:50:00,
2013-05-14 14:55:00,79.5,51.0,29.76,SW,225,3.4,3.4,37,0.00,,---,0.00,VWS V14.00,2013-05-14 18:55:00,
2013-05-14 15:00:00,79.3,50.8,29.76,SSW,202,1.1,1.1,37,0.00,,---,0.00,VWS V14.00,2013-05-14 19:00:00,
2013-05-14 15:05:00,79.2,49.9,29.76,WSW,248,2.7,2.7,36,0.00,,---,0.00,VWS V14.00,2013-05-14 19:05:00,
2013-05-14 15:10:00,79.7,50.4,29.76,South,180,2.0,3.6,36,0.00,,---,0.00,VWS V14.00,2013-05-14 19:10:00,
2013-05-14 15:15:00,79.7,50.4,29.76,SSW,202,2.7,3.4,36,0.00,,---,0.00,VWS V14.00,2013-05-14 19:15:00,
2013-05-14 15:20:00,79.5,51.0,29.76,South,180,2.5,3.6,37,0.00,,---,0.00,VWS V14.00,2013-05-14 19:20:00,
2013-05-14 15:25:00,79.5,51.0,29.76,South,180,2.5,2.7,37,0.00,,---,0.00,VWS V14.00,2013-05-14 19:25:00,
2013-05-14 15:30:00,79.9,51.3,29.74,SW,225,1.6,3.1,37,0.00,,---,0.00,VWS V14.00,2013-05-14 19:30:00,
2013-05-14 15:35:00,80.1,51.5,29.74,SW,225,0.9,2.0,37,0.00,,---,0.00,VWS V14.00,2013-05-14 19:35:00,
2013-05-14 15:40:00,80.1,50.7,29.74,SE,135,1.6,3.6,36,0.00,,---,0.00,VWS V14.00,2013-05-14 19:40:00,
2013-05-14 15:45:00,80.2,51.6,29.74,West,270,1.1,2.9,37,0.00,,---,0.00,VWS V14.00,2013-05-14 19:45:00,
2013-05-14 15:51:00,80.4,51.8,29.74,WSW,248,1.1,2.5,37,0.00,,---,0.00,VWS V14.00,2013-05-14 19:51:00,
2013-05-14 15:56:00,80.6,52.0,29.74,South,180,1.3,3.1,37,0.00,,---,0.00,VWS V14.00,2013-05-14 19:56:00,
2013-05-14 16:01:00,80.2,51.6,29.74,SW,225,2.7,2.9,37,0.00,,---,0.00,VWS V14.00,2013-05-14 20:01:00,
2013-05-14 16:06:00,79.7,51.2,29.74,NNE,22,1.6,2.0,37,0.00,,---,0.00,VWS V14.00,2013-05-14 20:06:00,
2013-05-14 16:11:00,79.7,51.9,29.74,NNE,22,1.6,1.6,38,0.00,,---,0.00,VWS V14.00,2013-05-14 20:11:00,
2013-05-14 16:16:00,79.5,51.0,29.74,SW,225,2.2,5.6,37,0.00,,---,0.00,VWS V14.00,2013-05-14 20:16:00,
2013-05-14 16:21:00,79.3,51.5,29.74,WSW,248,2.0,2.0,38,0.00,,---,0.00,VWS V14.00,2013-05-14 20:21:00,
2013-05-14 16:26:00,79.0,50.5,29.74,South,180,1.6,3.6,37,0.00,,---,0.00,VWS V14.00,2013-05-14 20:26:00,
2013-05-14 16:31:00,79.3,52.3,29.74,West,270,2.2,3.4,39,0.00,,---,0.00,VWS V14.00,2013-05-14 20:31:00,
2013-05-14 16:36:00,79.3,51.5,29.74,SSE,158,2.2,2.7,38,0.00,,---,0.00,VWS V14.00,2013-05-14 20:36:00,
2013-05-14 16:41:00,79.2,50.7,29.74,WSW,248,1.1,2.5,37,0.00,,---,0.00,VWS V14.00,2013-05-14 20:41:00,
2013-05-14 16:46:00,79.0,50.5,29.74,SSW,202,2.9,4.0,37,0.00,,---,0.00,VWS V14.00,2013-05-14 20:46:00,
2013-05-14 16:52:00,78.8,50.4,29.74,SSW,202,2.0,3.1,37,0.00,,---,0.00,VWS V14.00,2013-05-14 20:52:00,
2013-05-14 16:57:00,79.2,50.7,29.74,North,0,1.6,2.7,37,0.00,,---,0.00,VWS V14.00,2013-05-14 20:57:00,
2013-05-14 17:02:00,78.8,50.4,29.74,SSW,202,2.5,3.6,37,0.00,,---,0.00,VWS V14.00,2013-05-14 21:02:00,
2013-05-14 17:07:00,79.0,51.2,29.74,SW,225,1.3,1.3,38,0.00,,---,0.00,VWS V14.00,2013-05-14 21:07:00,
2013-05-14 17:12:00,79.2,51.4,29.74,West,270,1.3,2.9,38,0.00,,---,0.00,VWS V14.00,2013-05-14 21:12:00,
2013-05-14 17:17:00,79.0,50.5,29.76,South,180,1.6,1.6,37,0.00,,---,0.00,VWS V14.00,2013-05-14 21:17:00,
2013-05-14 17:22:00,78.8,50.4,29.76,West,270,1.3,2.0,37,0.00,,---,0.00,VWS V14.00,2013-05-14 21:22:00,
2013-05-14 17:27:00,78.8,50.4,29.76,North,0,2.9,2.9,37,0.00,,---,0.00,VWS V14.00,2013-05-14 21:27:00,
2013-05-14 17:32:00,78.6,50.2,29.76,North,0,1.6,3.1,37,0.00,,---,0.00,VWS V14.00,2013-05-14 21:32:00,
2013-05-14 17:37:00,78.4,50.0,29.76,NE,45,1.3,3.1,37,0.00,,---,0.00,VWS V14.00,2013-05-14 21:37:00,
2013-05-14 17:42:00,78.3,49.9,29.76,WSW,248,1.1,1.6,37,0.00,,---,0.00,VWS V14.00,2013-05-14 21:42:00,
2013-05-14 17:47:00,78.1,49.7,29.76,SW,225,1.6,2.9,37,0.00,,---,0.00,VWS V14.00,2013-05-14 21:47:00,
2013-05-14 17:52:00,78.1,49.7,29.76,North,0,2.7,3.1,37,0.00,,---,0.00,VWS V14.00,2013-05-14 21:52:00,
2013-05-14 17:58:00,77.5,48.5,29.76,North,0,2.0,3.4,36,0.00,,---,0.00,VWS V14.00,2013-05-14 21:58:00,
2013-05-14 18:03:00,76.8,48.6,29.76,NW,315,2.7,2.7,37,0.00,,---,0.00,VWS V14.00,2013-05-14 22:03:00,
2013-05-14 18:08:00,75.9,48.5,29.76,WSW,248,0.9,2.7,38,0.00,,---,0.00,VWS V14.00,2013-05-14 22:08:00,
2013-05-14 18:13:00,75.4,48.0,29.76,SSE,158,1.3,3.4,38,0.00,,---,0.00,VWS V14.00,2013-05-14 22:13:00,
2013-05-14 18:18:00,75.0,48.4,29.71,South,180,3.1,3.1,39,0.00,,---,0.00,VWS V14.00,2013-05-14 22:18:00,
2013-05-14 18:23:00,74.7,48.8,29.71,SE,135,0.0,0.0,40,0.00,,---,0.00,VWS V14.00,2013-05-14 22:23:00,
2013-05-14 18:28:00,74.7,49.4,29.71,ENE,68,1.3,1.3,41,0.00,,---,0.00,VWS V14.00,2013-05-14 22:28:00,
2013-05-14 18:33:00,74.5,49.3,29.71,NNE,22,2.0,2.0,41,0.00,,---,0.00,VWS V14.00,2013-05-14 22:33:00,
2013-05-14 18:38:00,74.5,49.3,29.71,West,270,0.0,0.0,41,0.00,,---,0.00,VWS V14.00,2013-05-14 22:38:00,
2013-05-14 18:43:00,74.5,49.3,29.71,West,270,0.0,0.0,41,0.00,,---,0.00,VWS V14.00,2013-05-14 22:43:00,
2013-05-14 18:48:00,74.7,50.1,29.74,West,270,0.0,0.0,42,0.00,,---,0.00,VWS V14.00,2013-05-14 22:48:00,
2013-05-14 18:53:00,74.7,49.4,29.74,West,270,0.0,0.0,41,0.00,,---,0.00,VWS V14.00,2013-05-14 22:53:00,
2013-05-14 18:59:00,74.5,49.3,29.74,West,270,0.0,0.0,41,0.00,,---,0.00,VWS V14.00,2013-05-14 22:59:00,
2013-05-14 19:04:00,74.5,49.9,29.71,West,270,0.0,0.0,42,0.00,,---,0.00,VWS V14.00,2013-05-14 23:04:00,
2013-05-14 19:09:00,74.5,49.9,29.71,SSW,202,0.0,0.0,42,0.00,,---,0.00,VWS V14.00,2013-05-14 23:09:00,
2013-05-14 19:14:00,74.3,49.8,29.71,SSW,202,0.0,0.0,42,0.00,,---,0.00,VWS V14.00,2013-05-14 23:14:00,
2013-05-14 19:19:00,74.3,49.8,29.71,South,180,0.0,0.0,42,0.00,,---,0.00,VWS V14.00,2013-05-14 23:19:00,
2013-05-14 19:24:00,74.1,49.6,29.71,SSE,158,0.0,0.0,42,0.00,,---,0.00,VWS V14.00,2013-05-14 23:24:00,
2013-05-14 19:29:00,74.1,49.6,29.71,SSE,158,0.0,0.0,42,0.00,,---,0.00,VWS V14.00,2013-05-14 23:29:00,
2013-05-14 19:34:00,73.9,50.1,29.71,SSE,158,0.0,0.0,43,0.00,,---,0.00,VWS V14.00,2013-05-14 23:34:00,
2013-05-14 19:39:00,73.8,49.9,29.71,South,180,0.0,0.0,43,0.00,,---,0.00,VWS V14.00,2013-05-14 23:39:00,
2013-05-14 19:44:00,73.4,50.2,29.71,South,180,0.0,0.0,44,0.00,,---,0.00,VWS V14.00,2013-05-14 23:44:00,
2013-05-14 19:49:00,73.0,50.5,29.71,South,180,0.0,1.1,45,0.00,,---,0.00,VWS V14.00,2013-05-14 23:49:00,
2013-05-14 19:54:00,72.7,50.1,29.71,South,180,0.0,0.0,45,0.00,,---,0.00,VWS V14.00,2013-05-14 23:54:00,
2013-05-14 20:00:00,72.7,49.5,29.71,NE,45,0.0,0.0,44,0.00,,---,0.00,VWS V14.00,2013-05-15 00:00:00,
2013-05-14 20:05:00,72.5,50.0,29.71,NE,45,0.0,0.0,45,0.00,,---,0.00,VWS V14.00,2013-05-15 00:05:00,
2013-05-14 20:10:00,72.1,49.7,29.71,SSE,158,0.0,0.0,45,0.00,,---,0.00,VWS V14.00,2013-05-15 00:10:00,
2013-05-14 20:15:00,71.8,49.9,29.71,SE,135,0.0,0.0,46,0.00,,---,0.00,VWS V14.00,2013-05-15 00:15:00,
2013-05-14 20:20:00,71.6,50.3,29.71,SE,135,0.0,0.0,47,0.00,,---,0.00,VWS V14.00,2013-05-15 00:20:00,
2013-05-14 20:25:00,71.4,50.7,29.71,SE,135,0.0,0.0,48,0.00,,---,0.00,VWS V14.00,2013-05-15 00:25:00,
2013-05-14 20:30:00,71.1,51.0,29.71,SE,135,0.0,0.0,49,0.00,,---,0.00,VWS V14.00,2013-05-15 00:30:00,
2013-05-14 20:35:00,70.5,50.5,29.71,SE,135,0.0,0.0,49,0.00,,---,0.00,VWS V14.00,2013-05-15 00:35:00,
2013-05-14 20:40:00,70.2,50.7,29.71,SE,135,0.0,0.0,50,0.00,,---,0.00,VWS V14.00,2013-05-15 00:40:00,
2013-05-14 20:45:00,69.6,50.2,29.71,SE,135,0.0,0.0,50,0.00,,---,0.00,VWS V14.00,2013-05-15 00:45:00,
2013-05-14 20:51:00,69.3,50.4,29.71,SE,135,0.0,0.0,51,0.00,,---,0.00,VWS V14.00,2013-05-15 00:51:00,
2013-05-14 20:56:00,68.9,50.0,29.71,SE,135,0.0,0.0,51,0.00,,---,0.00,VWS V14.00,2013-05-15 00:56:00,
2013-05-14 21:01:00,68.7,50.4,29.68,SE,135,0.0,0.0,52,0.00,,---,0.00,VWS V14.00,2013-05-15 01:01:00,
2013-05-14 21:06:00,68.4,50.1,29.68,SE,135,0.0,0.0,52,0.00,,---,0.00,VWS V14.00,2013-05-15 01:06:00,
2013-05-14 21:11:00,68.0,50.2,29.68,SE,135,0.0,0.0,53,0.00,,---,0.00,VWS V14.00,2013-05-15 01:11:00,
2013-05-14 21:16:00,67.6,50.4,29.71,SE,135,0.0,0.0,54,0.00,,---,0.00,VWS V14.00,2013-05-15 01:16:00,
2013-05-14 21:21:00,67.3,51.1,29.71,South,180,0.0,0.0,56,0.00,,---,0.00,VWS V14.00,2013-05-15 01:21:00,
2013-05-14 21:26:00,67.1,51.4,29.71,South,180,0.0,0.0,57,0.00,,---,0.00,VWS V14.00,2013-05-15 01:26:00,
2013-05-14 21:31:00,66.9,51.7,29.71,South,180,0.0,0.0,58,0.00,,---,0.00,VWS V14.00,2013-05-15 01:31:00,
2013-05-14 21:36:00,66.9,51.7,29.71,South,180,0.0,0.0,58,0.00,,---,0.00,VWS V14.00,2013-05-15 01:36:00,
2013-05-14 21:41:00,66.9,51.7,29.71,SSE,158,2.2,2.2,58,0.00,,---,0.00,VWS V14.00,2013-05-15 01:41:00,
2013-05-14 21:46:00,67.1,51.8,29.65,SSW,202,0.9,1.6,58,0.00,,---,0.00,VWS V14.00,2013-05-15 01:46:00,
2013-05-14 21:51:00,67.3,51.5,29.65,SSW,202,0.0,0.9,57,0.00,,---,0.00,VWS V14.00,2013-05-15 01:51:00,
2013-05-14 21:57:00,67.6,51.4,29.65,SSW,202,0.0,0.0,56,0.00,,---,0.00,VWS V14.00,2013-05-15 01:57:00,
2013-05-14 22:02:00,67.6,50.9,29.68,SSW,202,0.0,0.0,55,0.00,,---,0.00,VWS V14.00,2013-05-15 02:02:00,
2013-05-14 22:07:00,67.6,51.4,29.68,WSW,248,2.0,2.2,56,0.00,,---,0.00,VWS V14.00,2013-05-15 02:07:00,
2013-05-14 22:12:00,67.8,51.1,29.68,SSE,158,0.9,2.2,55,0.00,,---,0.00,VWS V14.00,2013-05-15 02:12:00,
2013-05-14 22:17:00,68.2,50.9,29.68,NNE,22,2.0,2.0,54,0.00,,---,0.00,VWS V14.00,2013-05-15 02:17:00,
2013-05-14 22:22:00,68.0,50.8,29.68,SSE,158,2.5,2.5,54,0.00,,---,0.00,VWS V14.00,2013-05-15 02:22:00,
2013-05-14 22:27:00,67.8,50.6,29.68,South,180,2.0,2.7,54,0.00,,---,0.00,VWS V14.00,2013-05-15 02:27:00,
2013-05-14 22:32:00,67.8,50.1,29.65,NNE,22,1.6,1.6,53,0.00,,---,0.00,VWS V14.00,2013-05-15 02:32:00,
2013-05-14 22:37:00,68.0,50.2,29.65,North,0,1.1,1.3,53,0.00,,---,0.00,VWS V14.00,2013-05-15 02:37:00,
2013-05-14 22:42:00,68.0,50.2,29.65,North,0,0.0,0.0,53,0.00,,---,0.00,VWS V14.00,2013-05-15 02:42:00,
2013-05-14 22:47:00,67.8,50.6,29.68,North,0,0.0,0.0,54,0.00,,---,0.00,VWS V14.00,2013-05-15 02:47:00,
2013-05-14 22:52:00,67.6,50.4,29.68,North,0,0.0,0.0,54,0.00,,---,0.00,VWS V14.00,2013-05-15 02:52:00,
2013-05-14 22:57:00,67.5,50.8,29.68,SW,225,0.0,0.0,55,0.00,,---,0.00,VWS V14.00,2013-05-15 02:57:00,
2013-05-14 23:02:00,67.3,51.1,29.65,SW,225,0.9,0.9,56,0.00,,---,0.00,VWS V14.00,2013-05-15 03:02:00,
2013-05-14 23:07:00,67.1,50.9,29.65,SSW,202,2.2,2.2,56,0.00,,---,0.00,VWS V14.00,2013-05-15 03:07:00,
2013-05-14 23:12:00,67.1,51.8,29.65,West,270,1.3,1.6,58,0.00,,---,0.00,VWS V14.00,2013-05-15 03:12:00,
2013-05-14 23:17:00,67.6,51.4,29.65,SSW,202,2.2,2.2,56,0.00,,---,0.00,VWS V14.00,2013-05-15 03:17:00,
2013-05-14 23:22:00,68.0,50.8,29.65,SSW,202,0.0,1.3,54,0.00,,---,0.00,VWS V14.00,2013-05-15 03:22:00,
2013-05-14 23:27:00,68.0,50.8,29.65,WNW,292,0.0,0.0,54,0.00,,---,0.00,VWS V14.00,2013-05-15 03:27:00,
2013-05-14 23:32:00,68.0,50.2,29.65,South,180,0.0,0.0,53,0.00,,---,0.00,VWS V14.00,2013-05-15 03:32:00,
2013-05-14 23:37:00,68.0,50.2,29.65,NNE,22,0.9,0.9,53,0.00,,---,0.00,VWS V14.00,2013-05-15 03:37:00,
2013-05-14 23:42:00,68.0,50.2,29.65,SSE,158,2.0,2.0,53,0.00,,---,0.00,VWS V14.00,2013-05-15 03:42:00,
2013-05-14 23:47:00,68.2,49.9,29.65,SSE,158,1.3,1.3,52,0.00,,---,0.00,VWS V14.00,2013-05-15 03:47:00,
2013-05-14 23:52:00,68.5,49.7,29.65,SSE,158,0.0,0.0,51,0.00,,---,0.00,VWS V14.00,2013-05-15 03:52:00,
2013-05-14 23:57:00,68.5,49.7,29.65,SSE,158,0.0,0.0,51,0.00,,---,0.00,VWS V14.00,2013-05-15 03:57:00,